Time;durP1;ratioP1;P1;durP2;ratioP2;P2;SDS_P1;SDS_P2;PMS_P1;PMS_P2;Temp;Humidity;BMP_temperature;BMP_pressure;BME280_temperature;BME280_humidity;BME280_pressure;Samples;Min_cycle;Max_cycle;Signal;HPM_P1;HPM_P2
2023/09/08 00:01:18;;;;;;;9.55;8.35;;;22.40;91.90;;;;;;5012810;28;20033;-59
2023/09/08 00:04:04;;;;;;;9.00;7.90;;;22.30;92.10;;;;;;5012216;28;20491;-58
2023/09/08 00:06:50;;;;;;;9.73;8.40;;;22.20;92.30;;;;;;5012584;28;20037;-55
2023/09/08 00:09:36;;;;;;;10.27;8.38;;;22.10;92.50;;;;;;4997290;28;20018;-59
2023/09/08 00:12:22;;;;;;;10.13;8.25;;;22.10;92.70;;;;;;5011948;28;20026;-57
2023/09/08 00:15:09;;;;;;;8.52;7.72;;;22.10;92.70;;;;;;5012099;28;20028;-59
2023/09/08 00:17:56;;;;;;;9.38;8.00;;;22.10;92.80;;;;;;5011175;28;20030;-57
2023/09/08 00:20:42;;;;;;;8.80;7.80;;;22.00;92.90;;;;;;5011116;28;20034;-58
2023/09/08 00:23:28;;;;;;;9.27;8.30;;;22.00;93.00;;;;;;5012035;28;20033;-58
2023/09/08 00:26:14;;;;;;;10.40;8.07;;;22.00;93.10;;;;;;5011832;28;20101;-57
2023/09/08 00:29:00;;;;;;;10.00;8.48;;;22.00;93.20;;;;;;5011463;28;20026;-56
2023/09/08 00:31:46;;;;;;;9.75;8.05;;;22.00;93.10;;;;;;5012206;28;20026;-59
2023/09/08 00:34:32;;;;;;;9.32;8.20;;;22.00;93.10;;;;;;5012535;28;20534;-60
2023/09/08 00:37:18;;;;;;;11.07;8.75;;;21.80;93.60;;;;;;5010005;28;20488;-58
2023/09/08 00:40:04;;;;;;;12.10;8.45;;;21.70;93.60;;;;;;5012471;28;20399;-57
2023/09/08 00:42:50;;;;;;;11.48;8.40;;;21.70;93.70;;;;;;5011637;28;20041;-57
2023/09/08 00:45:41;;;;;;;10.63;8.10;;;21.60;94.00;;;;;;5011736;28;20018;-56
2023/09/08 00:48:27;;;;;;;10.43;8.32;;;21.50;94.10;;;;;;5009902;28;20133;-58
2023/09/08 00:51:13;;;;;;;13.10;8.82;;;21.40;94.40;;;;;;5004107;28;20081;-59
2023/09/08 00:53:59;;;;;;;11.35;8.73;;;21.40;94.50;;;;;;5023843;28;20503;-57
2023/09/08 00:56:48;;;;;;;9.38;8.30;;;21.30;94.60;;;;;;5010521;28;20030;-57
2023/09/08 00:59:36;;;;;;;9.55;8.23;;;21.20;94.80;;;;;;5006951;28;20395;-54
2023/09/08 01:02:22;;;;;;;10.77;8.50;;;21.20;95.10;;;;;;5009689;28;20022;-58
2023/09/08 01:05:08;;;;;;;11.15;8.85;;;21.10;95.50;;;;;;5010601;28;20034;-55
2023/09/08 01:07:55;;;;;;;11.65;9.38;;;21.00;95.60;;;;;;5011378;28;20033;-56
2023/09/08 01:10:42;;;;;;;11.18;9.27;;;20.90;95.60;;;;;;5011086;28;20036;-59
2023/09/08 01:13:27;;;;;;;11.82;9.18;;;20.80;95.90;;;;;;5010768;28;20106;-59
2023/09/08 01:16:13;;;;;;;18.80;8.70;;;20.80;96.20;;;;;;5010738;28;20026;-55
2023/09/08 01:18:59;;;;;;;12.05;8.60;;;20.70;96.40;;;;;;5009149;28;20104;-55
2023/09/08 01:22:16;;;;;;;9.48;8.43;;;20.70;96.70;;;;;;5009354;28;20499;-57
2023/09/08 01:25:23;;;;;;;9.55;8.52;;;20.80;96.70;;;;;;5010247;28;20407;-57
2023/09/08 01:28:12;;;;;;;11.25;8.80;;;20.80;96.80;;;;;;5010354;28;20036;-55
2023/09/08 01:30:58;;;;;;;10.57;8.68;;;20.70;96.90;;;;;;5010739;28;20065;-59
2023/09/08 01:33:45;;;;;;;10.20;8.40;;;20.70;97.30;;;;;;5010785;28;20022;-58
2023/09/08 01:36:31;;;;;;;9.77;8.48;;;20.70;97.20;;;;;;5010860;28;20104;-57
2023/09/08 01:39:17;;;;;;;12.38;9.15;;;20.70;97.30;;;;;;5010301;28;20025;-54
2023/09/08 01:42:03;;;;;;;11.27;8.90;;;20.70;97.40;;;;;;5009926;28;20221;-57
2023/09/08 01:44:49;;;;;;;11.95;9.07;;;20.70;97.40;;;;;;5010460;28;20030;-55
2023/09/08 01:47:36;;;;;;;10.48;8.45;;;20.60;97.40;;;;;;5009893;28;20096;-53
2023/09/08 01:50:24;;;;;;;10.95;9.35;;;20.60;97.50;;;;;;5010482;28;20058;-58
2023/09/08 01:53:10;;;;;;;9.75;8.75;;;20.60;97.50;;;;;;5011154;28;20041;-59
2023/09/08 01:55:56;;;;;;;11.15;8.82;;;20.60;97.60;;;;;;5011112;28;20395;-59
2023/09/08 01:58:42;;;;;;;10.93;8.88;;;20.60;97.70;;;;;;5010650;28;20646;-58
2023/09/08 02:01:28;;;;;;;11.07;9.70;;;20.60;97.70;;;;;;5011102;28;20021;-57
2023/09/08 02:04:14;;;;;;;9.73;8.70;;;20.50;97.90;;;;;;5011249;28;20030;-56
2023/09/08 02:07:00;;;;;;;12.63;8.95;;;20.50;98.10;;;;;;5009705;28;20080;-56
2023/09/08 02:09:45;;;;;;;11.88;9.63;;;20.50;98.10;;;;;;5010751;28;20030;-58
2023/09/08 02:12:31;;;;;;;11.30;8.85;;;20.40;98.20;;;;;;5010678;28;20113;-57
2023/09/08 02:15:17;;;;;;;10.85;9.38;;;20.30;98.40;;;;;;5012403;28;20464;-54
2023/09/08 02:18:04;;;;;;;11.98;9.70;;;20.30;98.50;;;;;;5014306;28;20128;-55
2023/09/08 02:20:49;;;;;;;10.10;9.00;;;20.30;98.60;;;;;;5014578;28;20038;-56
2023/09/08 02:23:36;;;;;;;10.00;9.00;;;20.30;98.60;;;;;;5014660;28;20025;-55
2023/09/08 02:26:22;;;;;;;10.20;9.20;;;20.30;98.60;;;;;;5014640;28;20030;-56
2023/09/08 02:29:08;;;;;;;9.70;8.70;;;20.30;98.70;;;;;;5014031;28;20045;-54
2023/09/08 02:31:53;;;;;;;10.45;8.98;;;20.30;98.80;;;;;;5014205;28;20064;-54
2023/09/08 02:34:41;;;;;;;9.88;8.70;;;20.30;98.80;;;;;;5015062;28;20117;-54
2023/09/08 02:37:27;;;;;;;10.57;9.27;;;20.40;98.70;;;;;;5014017;28;20041;-57
2023/09/08 02:40:13;;;;;;;9.80;8.27;;;20.40;98.60;;;;;;5014278;28;20058;-56
2023/09/08 02:42:59;;;;;;;9.40;8.35;;;20.40;98.60;;;;;;5014608;28;20041;-55
2023/09/08 02:45:47;;;;;;;11.73;8.60;;;20.30;98.70;;;;;;5014837;28;20113;-55
2023/09/08 02:48:32;;;;;;;10.45;9.35;;;20.30;98.90;;;;;;5013511;28;20491;-57
2023/09/08 02:51:18;;;;;;;10.23;9.18;;;20.30;98.90;;;;;;5013542;28;20030;-55
2023/09/08 02:54:04;;;;;;;10.30;9.20;;;20.30;98.90;;;;;;5013192;28;20037;-55
2023/09/08 02:56:50;;;;;;;9.63;8.57;;;20.30;99.00;;;;;;5012805;28;20030;-57
2023/09/08 02:59:37;;;;;;;10.52;9.27;;;20.20;98.90;;;;;;5012835;28;20105;-52
2023/09/08 03:02:25;;;;;;;9.77;8.57;;;20.20;99.00;;;;;;5012017;28;20030;-52
2023/09/08 03:05:11;;;;;;;11.77;9.13;;;20.20;99.10;;;;;;5011199;28;20510;-57
2023/09/08 03:07:57;;;;;;;9.60;8.70;;;20.10;99.20;;;;;;5011834;28;20495;-53
2023/09/08 03:10:43;;;;;;;12.65;8.95;;;20.00;99.30;;;;;;5011746;28;20510;-53
2023/09/08 03:13:29;;;;;;;10.27;9.10;;;20.00;99.30;;;;;;5012130;28;20068;-54
2023/09/08 03:16:15;;;;;;;10.07;9.07;;;20.00;99.30;;;;;;5012201;28;20035;-54
2023/09/08 03:19:01;;;;;;;12.65;10.02;;;20.00;99.40;;;;;;5013051;28;20466;-54
2023/09/08 03:21:47;;;;;;;10.05;9.15;;;19.90;99.40;;;;;;5013435;28;20026;-51
2023/09/08 03:24:33;;;;;;;10.93;9.13;;;19.90;99.40;;;;;;5013612;28;20026;-54
2023/09/08 03:27:19;;;;;;;10.82;9.73;;;19.90;99.40;;;;;;5011771;28;20097;-55
2023/09/08 03:30:05;;;;;;;14.50;11.70;;;19.80;99.50;;;;;;5012175;28;20033;-58
2023/09/08 03:32:51;;;;;;;12.40;9.90;;;19.70;99.70;;;;;;5012666;28;20026;-54
2023/09/08 03:35:37;;;;;;;10.15;9.13;;;19.70;99.70;;;;;;5012716;28;20022;-55
2023/09/08 03:38:23;;;;;;;10.05;9.05;;;19.70;99.70;;;;;;5013034;28;20018;-53
2023/09/08 03:41:10;;;;;;;11.27;9.93;;;19.70;99.70;;;;;;5012513;28;20491;-57
2023/09/08 03:43:56;;;;;;;13.73;10.35;;;19.70;99.80;;;;;;5011230;28;20080;-55
2023/09/08 03:46:42;;;;;;;11.98;9.70;;;19.60;99.90;;;;;;5012821;28;20024;-58
2023/09/08 03:49:28;;;;;;;10.20;9.10;;;19.60;99.80;;;;;;5011301;28;20030;-58
2023/09/08 03:52:14;;;;;;;10.98;9.88;;;19.50;99.80;;;;;;5011943;28;20041;-58
2023/09/08 03:55:00;;;;;;;11.10;9.70;;;19.40;99.90;;;;;;5012225;28;20041;-55
2023/09/08 03:57:46;;;;;;;11.07;9.48;;;19.40;99.90;;;;;;5011984;28;20036;-53
2023/09/08 04:00:32;;;;;;;10.38;9.15;;;19.40;99.90;;;;;;5013139;28;20026;-56
2023/09/08 04:03:18;;;;;;;10.60;9.35;;;19.30;99.90;;;;;;5012444;28;20034;-57
2023/09/08 04:06:03;;;;;;;11.73;8.90;;;19.30;99.90;;;;;;5012536;28;20065;-56
2023/09/08 04:08:49;;;;;;;18.92;16.70;;;19.20;99.90;;;;;;5011403;28;20061;-56
2023/09/08 04:11:35;;;;;;;14.77;11.82;;;19.30;99.90;;;;;;5012109;28;20018;-55
2023/09/08 04:14:23;;;;;;;10.93;9.80;;;19.20;99.90;;;;;;5012028;28;20018;-53
2023/09/08 04:17:09;;;;;;;12.93;9.77;;;19.20;99.90;;;;;;5011075;28;20026;-55
2023/09/08 04:19:55;;;;;;;10.55;9.05;;;19.20;99.90;;;;;;5012655;28;20503;-53
2023/09/08 04:22:41;;;;;;;14.18;9.68;;;19.20;99.90;;;;;;5011948;28;20113;-53
2023/09/08 04:25:27;;;;;;;10.10;9.02;;;19.20;99.90;;;;;;5011730;28;20022;-53
2023/09/08 04:28:13;;;;;;;15.15;10.82;;;19.20;99.90;;;;;;5012202;28;20068;-55
2023/09/08 04:30:59;;;;;;;9.77;8.80;;;19.20;99.90;;;;;;5012157;28;20491;-54
2023/09/08 04:33:45;;;;;;;10.85;8.73;;;19.30;99.90;;;;;;5012081;28;20048;-57
2023/09/08 04:36:31;;;;;;;10.73;8.68;;;19.30;99.90;;;;;;5024418;28;20438;-52
2023/09/08 04:39:17;;;;;;;9.32;8.38;;;19.30;99.90;;;;;;5012203;28;20036;-56
2023/09/08 04:42:03;;;;;;;11.10;9.95;;;19.30;99.90;;;;;;5011366;28;20036;-57
2023/09/08 04:44:49;;;;;;;9.88;8.68;;;19.30;99.90;;;;;;5011057;28;20496;-53
2023/09/08 04:47:35;;;;;;;10.43;9.32;;;19.30;99.90;;;;;;5005366;28;20030;-58
2023/09/08 04:50:21;;;;;;;13.27;10.85;;;19.20;99.90;;;;;;5011554;28;20518;-54
2023/09/08 04:53:07;;;;;;;14.30;10.48;;;19.10;99.90;;;;;;5012209;28;20372;-56
2023/09/08 04:55:53;;;;;;;12.27;10.18;;;19.10;99.90;;;;;;5011299;28;20403;-54
2023/09/08 04:58:39;;;;;;;10.90;9.50;;;19.20;99.90;;;;;;5011082;28;20022;-53
2023/09/08 05:01:25;;;;;;;10.77;9.57;;;19.20;99.90;;;;;;5010601;28;20036;-56
2023/09/08 05:04:11;;;;;;;12.60;9.35;;;19.30;99.90;;;;;;5010421;28;20113;-59
2023/09/08 05:06:57;;;;;;;10.20;8.55;;;19.30;99.90;;;;;;5010681;28;20053;-57
2023/09/08 05:09:43;;;;;;;11.68;9.10;;;19.40;99.90;;;;;;5010484;28;20036;-53
2023/09/08 05:12:29;;;;;;;10.52;8.90;;;19.40;99.90;;;;;;5010803;28;20030;-58
2023/09/08 05:15:16;;;;;;;11.05;9.52;;;19.40;99.90;;;;;;5011729;28;20064;-53
2023/09/08 05:18:02;;;;;;;10.70;9.60;;;19.50;99.90;;;;;;5010401;28;20037;-54
2023/09/08 05:20:48;;;;;;;11.63;9.45;;;19.50;99.90;;;;;;5010760;28;20117;-51
2023/09/08 05:23:34;;;;;;;11.05;9.27;;;19.40;99.90;;;;;;5005254;28;20033;-56
2023/09/08 05:26:20;;;;;;;11.38;9.80;;;19.40;99.90;;;;;;5009536;28;20072;-56
2023/09/08 05:29:06;;;;;;;12.20;9.82;;;19.40;99.90;;;;;;5010637;28;20112;-53
2023/09/08 05:31:52;;;;;;;13.00;9.98;;;19.40;99.90;;;;;;5011522;28;20026;-51
2023/09/08 05:34:37;;;;;;;14.82;10.85;;;19.40;99.90;;;;;;5010698;28;20022;-56
2023/09/08 05:37:23;;;;;;;11.52;10.40;;;19.30;99.90;;;;;;5010572;28;20029;-56
2023/09/08 05:40:09;;;;;;;18.02;12.48;;;19.40;99.90;;;;;;5010644;28;20049;-57
2023/09/08 05:42:55;;;;;;;16.17;10.98;;;19.30;99.90;;;;;;5010868;28;20481;-59
2023/09/08 05:45:41;;;;;;;12.15;10.25;;;19.20;99.90;;;;;;5011171;28;20728;-52
2023/09/08 05:48:27;;;;;;;12.13;10.82;;;19.20;99.90;;;;;;5014209;28;20033;-54
2023/09/08 05:51:14;;;;;;;12.63;10.60;;;19.20;99.90;;;;;;5020314;28;20407;-57
2023/09/08 05:54:00;;;;;;;11.95;10.80;;;19.20;99.90;;;;;;5015836;28;20068;-57
2023/09/08 05:56:46;;;;;;;13.40;10.80;;;19.30;99.90;;;;;;5013189;28;20403;-57
2023/09/08 05:59:32;;;;;;;12.45;10.98;;;19.30;99.90;;;;;;5016120;28;20521;-57
2023/09/08 06:02:18;;;;;;;15.63;11.55;;;19.40;99.90;;;;;;5009960;28;20411;-58
2023/09/08 06:05:04;;;;;;;35.03;25.58;;;19.40;99.90;;;;;;5010558;28;20117;-59
2023/09/08 06:07:50;;;;;;;56.78;39.67;;;19.50;99.90;;;;;;5010457;28;20943;-55
2023/09/08 06:10:37;;;;;;;36.03;25.90;;;19.50;99.90;;;;;;5004993;28;20109;-56
2023/09/08 06:13:23;;;;;;;23.58;18.08;;;19.50;99.90;;;;;;5010595;28;20029;-55
2023/09/08 06:16:08;;;;;;;17.63;13.75;;;19.50;99.90;;;;;;5010495;28;20498;-57
2023/09/08 06:18:55;;;;;;;15.93;12.55;;;19.50;99.90;;;;;;5010344;28;20030;-56
2023/09/08 06:21:40;;;;;;;13.65;11.60;;;19.60;99.90;;;;;;5023311;28;20503;-54
2023/09/08 06:24:26;;;;;;;16.20;12.90;;;19.60;99.60;;;;;;5009619;28;20073;-56
2023/09/08 06:27:14;;;;;;;12.50;11.20;;;19.60;99.60;;;;;;5010174;28;20037;-56
2023/09/08 06:30:00;;;;;;;17.83;13.10;;;19.70;99.50;;;;;;5009662;28;20041;-58
2023/09/08 06:32:46;;;;;;;15.10;11.63;;;19.80;99.20;;;;;;5011185;28;20026;-52
2023/09/08 06:35:33;;;;;;;13.90;12.43;;;19.80;99.30;;;;;;5010136;28;20051;-52
2023/09/08 06:38:19;;;;;;;13.30;11.90;;;19.80;99.30;;;;;;5009604;28;20498;-51
2023/09/08 06:41:10;;;;;;;16.15;12.40;;;19.90;99.40;;;;;;5009994;28;20128;-55
2023/09/08 06:43:56;;;;;;;13.35;11.95;;;20.00;99.20;;;;;;5010127;28;20411;-56
2023/09/08 06:46:42;;;;;;;13.55;11.68;;;20.20;98.90;;;;;;5010507;28;20026;-56
2023/09/08 06:49:28;;;;;;;17.00;11.73;;;20.20;98.70;;;;;;5009691;28;20462;-56
2023/09/08 06:52:14;;;;;;;13.02;11.05;;;20.30;98.90;;;;;;5009882;28;20061;-52
2023/09/08 06:55:00;;;;;;;17.60;15.88;;;20.40;99.00;;;;;;5009840;28;20148;-53
2023/09/08 06:57:46;;;;;;;16.60;12.82;;;20.50;98.80;;;;;;5009761;28;20022;-54
2023/09/08 07:00:32;;;;;;;16.60;13.35;;;20.50;98.40;;;;;;5010194;28;20545;-52
2023/09/08 07:03:18;;;;;;;15.00;12.07;;;20.60;98.10;;;;;;5013346;28;20034;-55
2023/09/08 07:06:04;;;;;;;15.95;12.02;;;20.70;97.90;;;;;;5013769;28;20109;-55
2023/09/08 07:08:50;;;;;;;16.30;13.63;;;20.70;97.50;;;;;;5013174;28;20117;-52
2023/09/08 07:11:36;;;;;;;19.42;13.48;;;20.80;97.30;;;;;;5013499;28;20415;-54
2023/09/08 07:14:23;;;;;;;15.02;12.18;;;20.80;97.20;;;;;;5013511;28;20093;-57
2023/09/08 07:17:08;;;;;;;17.10;12.73;;;20.90;97.40;;;;;;5012808;28;20076;-56
2023/09/08 07:19:54;;;;;;;18.42;12.50;;;21.00;97.30;;;;;;5013314;28;20033;-53
2023/09/08 07:22:41;;;;;;;14.10;11.68;;;21.00;97.30;;;;;;5026244;28;20038;-56
2023/09/08 07:25:26;;;;;;;14.05;11.55;;;21.00;97.20;;;;;;5013969;28;20041;-58
2023/09/08 07:28:12;;;;;;;15.13;12.30;;;21.10;97.30;;;;;;5013066;28;20033;-58
2023/09/08 07:31:06;;;;;;;16.13;12.07;;;21.20;97.10;;;;;;5013148;28;20028;-58
2023/09/08 07:33:52;;;;;;;13.38;11.75;;;21.30;96.90;;;;;;5013458;28;20026;-53
2023/09/08 07:36:38;;;;;;;18.67;12.88;;;21.30;96.70;;;;;;5007864;28;20030;-53
2023/09/08 07:39:24;;;;;;;15.07;11.38;;;21.40;96.50;;;;;;5012873;28;20037;-52
2023/09/08 07:42:10;;;;;;;17.45;10.88;;;21.40;96.70;;;;;;5013033;28;20069;-54
2023/09/08 07:44:56;;;;;;;14.48;10.80;;;21.50;96.60;;;;;;5026199;28;20550;-58
2023/09/08 07:47:43;;;;;;;21.02;11.98;;;21.60;96.40;;;;;;5012440;28;20510;-56
2023/09/08 07:50:31;;;;;;;12.70;10.50;;;21.60;96.20;;;;;;5012643;28;20551;-53
2023/09/08 07:53:17;;;;;;;10.65;9.55;;;21.70;96.20;;;;;;5012466;28;20104;-56
2023/09/08 07:56:04;;;;;;;12.55;10.70;;;21.80;95.90;;;;;;5012967;28;20495;-55
2023/09/08 07:58:50;;;;;;;12.10;10.82;;;22.00;95.70;;;;;;5012308;28;20026;-54
2023/09/08 08:01:35;;;;;;;14.80;11.00;;;22.10;95.60;;;;;;5013020;28;20022;-55
2023/09/08 08:04:21;;;;;;;14.57;10.32;;;22.10;95.40;;;;;;5017492;28;20052;-55
2023/09/08 08:07:07;;;;;;;12.88;10.60;;;22.20;95.30;;;;;;5012364;28;20032;-56
2023/09/08 08:09:54;;;;;;;17.02;10.75;;;22.30;95.30;;;;;;5012290;28;20076;-56
2023/09/08 08:12:41;;;;;;;18.08;12.50;;;22.40;94.90;;;;;;5011975;28;20487;-53
2023/09/08 08:15:37;;;;;;;18.60;15.82;;;22.50;95.00;;;;;;5012102;28;20072;-54
2023/09/08 08:18:23;;;;;;;16.83;13.00;;;22.50;95.10;;;;;;5012243;28;20071;-57
2023/09/08 08:21:09;;;;;;;14.73;9.80;;;22.60;95.00;;;;;;5011862;28;20403;-59
2023/09/08 08:23:55;;;;;;;11.52;10.32;;;22.60;94.80;;;;;;5012900;28;20475;-54
2023/09/08 08:26:41;;;;;;;12.77;9.73;;;22.70;94.60;;;;;;5012158;28;20030;-54
2023/09/08 08:29:27;;;;;;;10.70;9.00;;;22.80;94.40;;;;;;5011991;28;20508;-55
2023/09/08 08:32:13;;;;;;;12.23;10.13;;;22.80;94.30;;;;;;5012324;28;20026;-53
2023/09/08 08:34:59;;;;;;;13.80;9.73;;;22.90;94.20;;;;;;5011803;28;20025;-54
2023/09/08 08:37:45;;;;;;;10.65;9.65;;;22.90;94.20;;;;;;5011355;28;20132;-60
2023/09/08 08:40:31;;;;;;;17.88;9.88;;;23.10;94.20;;;;;;5011501;28;20026;-56
2023/09/08 08:43:17;;;;;;;11.85;9.68;;;23.20;94.00;;;;;;5011803;28;20507;-56
2023/09/08 08:46:05;;;;;;;16.65;9.73;;;23.20;94.00;;;;;;5010831;28;20117;-54
2023/09/08 08:48:54;;;;;;;13.07;10.13;;;23.30;93.80;;;;;;5010800;28;20041;-57
2023/09/08 08:51:43;;;;;;;11.18;10.00;;;23.40;93.60;;;;;;5011610;28;20419;-57
2023/09/08 08:54:30;;;;;;;10.60;9.50;;;23.40;93.80;;;;;;5011498;28;20117;-57
2023/09/08 08:57:15;;;;;;;11.50;10.35;;;23.40;94.00;;;;;;5024585;28;20118;-56
2023/09/08 09:00:06;;;;;;;13.35;9.70;;;23.60;93.90;;;;;;5010608;28;20030;-56
2023/09/08 09:02:53;;;;;;;14.07;10.63;;;23.70;93.70;;;;;;5009311;28;20022;-56
2023/09/08 09:05:41;;;;;;;10.75;9.07;;;23.60;94.10;;;;;;5010292;28;20014;-55
2023/09/08 09:08:27;;;;;;;11.68;9.80;;;23.70;93.90;;;;;;5010776;28;20546;-56
2023/09/08 09:11:13;;;;;;;12.00;10.50;;;23.80;93.90;;;;;;5011340;28;20033;-58
2023/09/08 09:13:59;;;;;;;13.48;9.80;;;24.00;93.20;;;;;;5012378;28;20391;-55
2023/09/08 09:16:47;;;;;;;11.90;9.48;;;23.90;93.20;;;;;;5006993;28;20026;-58
2023/09/08 09:19:35;;;;;;;13.57;10.07;;;24.00;93.00;;;;;;5009810;28;20041;-59
2023/09/08 09:22:21;;;;;;;11.63;9.38;;;24.00;92.90;;;;;;5023211;28;20034;-58
2023/09/08 09:25:07;;;;;;;11.43;9.30;;;24.10;93.30;;;;;;5007538;28;20114;-53
2023/09/08 09:27:55;;;;;;;10.40;8.30;;;24.20;93.10;;;;;;5009918;28;20026;-57
2023/09/08 09:30:49;;;;;;;10.27;8.80;;;24.40;92.90;;;;;;5011095;28;20030;-56
2023/09/08 09:33:35;;;;;;;11.80;9.95;;;24.50;92.60;;;;;;5010974;28;20018;-57
2023/09/08 09:36:22;;;;;;;13.40;8.75;;;24.60;92.40;;;;;;5009136;28;20460;-58
2023/09/08 09:39:07;;;;;;;10.45;9.02;;;24.70;92.20;;;;;;5008138;28;20522;-53
2023/09/08 09:41:55;;;;;;;11.80;9.40;;;24.60;91.90;;;;;;5009491;28;20022;-56
2023/09/08 09:44:41;;;;;;;13.73;9.75;;;24.60;92.00;;;;;;5011118;28;20106;-51
2023/09/08 09:47:27;;;;;;;10.52;9.20;;;24.60;91.90;;;;;;5007626;28;20018;-55
2023/09/08 09:50:14;;;;;;;9.75;8.68;;;24.60;91.70;;;;;;5009514;28;20033;-55
2023/09/08 09:53:02;;;;;;;13.45;9.10;;;24.80;91.50;;;;;;5008448;28;20076;-54
2023/09/08 09:55:48;;;;;;;12.40;9.48;;;24.90;91.70;;;;;;5011351;28;20535;-55
2023/09/08 09:58:35;;;;;;;13.13;10.00;;;25.00;91.70;;;;;;5004689;28;20435;-55
2023/09/08 10:01:24;;;;;;;13.02;8.52;;;25.00;91.40;;;;;;5010617;28;20065;-56
2023/09/08 10:04:10;;;;;;;12.80;8.82;;;25.10;91.30;;;;;;5010100;28;20033;-54
2023/09/08 10:06:58;;;;;;;11.60;9.07;;;25.20;91.20;;;;;;5009856;28;20180;-57
2023/09/08 10:09:44;;;;;;;10.40;9.23;;;25.40;91.20;;;;;;5009744;28;20026;-51
2023/09/08 10:12:31;;;;;;;10.98;8.30;;;25.40;90.90;;;;;;5010109;28;20093;-53
2023/09/08 10:15:22;;;;;;;12.27;9.25;;;25.40;90.60;;;;;;5009930;28;20022;-52
2023/09/08 10:18:11;;;;;;;10.38;9.27;;;25.40;90.50;;;;;;5010526;28;20400;-57
2023/09/08 10:21:04;;;;;;;9.63;8.63;;;25.40;90.60;;;;;;5022419;28;20034;-56
2023/09/08 10:23:59;;;;;;;10.98;9.02;;;25.40;90.70;;;;;;5010004;28;20034;-53
2023/09/08 10:26:51;;;;;;;12.20;10.32;;;25.60;90.70;;;;;;5010387;28;20033;-54
2023/09/08 10:29:38;;;;;;;10.70;8.23;;;25.70;89.50;;;;;;5009306;28;20018;-56
2023/09/08 10:32:24;;;;;;;10.00;7.68;;;25.80;88.20;;;;;;5010051;28;20123;-54
2023/09/08 10:35:10;;;;;;;9.55;7.97;;;25.80;86.40;;;;;;5005418;28;20124;-55
2023/09/08 10:38:21;;;;;;;9.52;7.72;;;25.90;86.10;;;;;;5009209;28;20030;-58
2023/09/08 10:41:16;;;;;;;10.43;8.48;;;26.10;86.30;;;;;;5008846;28;20022;-53
2023/09/08 10:44:06;;;;;;;9.45;8.45;;;26.10;85.70;;;;;;5011243;28;20438;-54
2023/09/08 10:46:52;;;;;;;9.15;7.97;;;26.20;87.60;;;;;;5011903;28;20026;-52
2023/09/08 10:49:38;;;;;;;13.50;8.48;;;26.30;86.80;;;;;;5012679;28;20069;-54
2023/09/08 10:52:25;;;;;;;9.40;7.18;;;26.30;85.70;;;;;;5013292;28;20018;-53
2023/09/08 10:55:15;;;;;;;15.18;8.50;;;26.40;85.20;;;;;;5011275;28;20109;-52
2023/09/08 10:58:00;;;;;;;10.63;7.57;;;26.30;85.00;;;;;;5009728;28;20030;-55
2023/09/08 11:00:51;;;;;;;12.85;8.10;;;26.30;84.70;;;;;;5011226;28;20033;-53
2023/09/08 11:03:37;;;;;;;8.30;7.35;;;26.40;84.70;;;;;;5012058;28;20057;-52
2023/09/08 11:06:23;;;;;;;8.35;7.55;;;26.40;84.30;;;;;;5012006;28;20026;-52
2023/09/08 11:09:09;;;;;;;10.48;7.20;;;26.40;84.30;;;;;;5008848;28;20054;-55
2023/09/08 11:11:55;;;;;;;8.77;7.22;;;26.60;84.00;;;;;;5011767;28;20392;-54
2023/09/08 11:14:43;;;;;;;11.05;7.78;;;26.60;83.90;;;;;;5006065;28;20395;-54
2023/09/08 11:17:28;;;;;;;12.52;7.85;;;26.70;84.10;;;;;;5004798;28;20022;-59
2023/09/08 11:20:16;;;;;;;11.95;7.70;;;26.70;83.40;;;;;;5008147;28;20076;-58
2023/09/08 11:23:04;;;;;;;10.23;7.78;;;26.70;83.40;;;;;;5011088;28;20026;-55
2023/09/08 11:25:51;;;;;;;8.70;7.70;;;26.70;83.70;;;;;;5006910;28;20126;-57
2023/09/08 11:28:37;;;;;;;11.23;8.02;;;26.80;84.10;;;;;;5010986;28;20030;-59
2023/09/08 11:31:23;;;;;;;11.02;7.93;;;26.90;84.50;;;;;;5016355;28;20038;-56
2023/09/08 11:34:13;;;;;;;9.23;7.55;;;26.90;84.80;;;;;;5010195;28;20499;-60
2023/09/08 11:36:59;;;;;;;10.73;8.02;;;27.00;84.40;;;;;;5011028;28;20034;-57
2023/09/08 11:39:46;;;;;;;10.48;8.52;;;27.00;84.20;;;;;;4998753;28;20035;-56
2023/09/08 11:42:33;;;;;;;12.07;9.82;;;27.10;84.60;;;;;;4991829;28;20537;-57
2023/09/08 11:45:23;;;;;;;10.18;8.75;;;27.10;84.30;;;;;;5009899;28;20042;-57
2023/09/08 11:48:09;;;;;;;9.35;8.52;;;27.10;84.40;;;;;;5010221;28;20056;-55
2023/09/08 11:50:55;;;;;;;13.18;8.43;;;27.20;84.50;;;;;;5008236;28;20084;-58
2023/09/08 11:53:42;;;;;;;12.23;10.60;;;27.30;84.50;;;;;;5005189;28;20077;-57
2023/09/08 11:56:28;;;;;;;10.32;8.57;;;27.30;84.00;;;;;;5007986;28;20022;-55
2023/09/08 11:59:15;;;;;;;10.40;9.40;;;27.30;83.90;;;;;;5006961;28;20046;-58
2023/09/08 12:02:01;;;;;;;12.88;9.55;;;27.30;83.90;;;;;;5010206;28;20102;-57
2023/09/08 12:04:47;;;;;;;10.63;9.52;;;27.30;83.90;;;;;;4996416;28;20030;-58
2023/09/08 12:07:33;;;;;;;12.82;9.52;;;27.30;83.50;;;;;;4991673;28;20026;-58
2023/09/08 12:10:19;;;;;;;13.43;8.85;;;27.40;83.60;;;;;;5019956;28;20561;-51
2023/09/08 12:13:05;;;;;;;12.73;9.50;;;27.50;83.60;;;;;;5029788;28;20454;-55
2023/09/08 12:15:51;;;;;;;9.38;8.10;;;27.60;83.50;;;;;;4990834;28;20034;-58
2023/09/08 12:18:39;;;;;;;11.30;8.27;;;27.50;83.70;;;;;;5016771;28;20446;-57
2023/09/08 12:21:24;;;;;;;10.00;8.52;;;27.70;83.80;;;;;;5011577;28;20083;-58
2023/09/08 12:24:13;;;;;;;9.43;8.18;;;27.80;83.60;;;;;;5008467;28;20038;-59
2023/09/08 12:27:02;;;;;;;9.80;8.00;;;27.90;83.60;;;;;;5010254;28;20056;-55
2023/09/08 12:30:08;;;;;;;11.43;8.20;;;28.10;83.20;;;;;;5003712;28;20022;-54
2023/09/08 12:32:54;;;;;;;8.80;7.80;;;28.10;82.60;;;;;;4995330;28;20040;-57
2023/09/08 12:35:44;;;;;;;10.45;7.93;;;28.10;81.90;;;;;;5005849;28;20120;-56
2023/09/08 12:38:33;;;;;;;8.77;7.30;;;28.20;81.90;;;;;;5007905;28;20469;-57
2023/09/08 12:41:19;;;;;;;7.65;6.95;;;28.40;81.90;;;;;;5009082;28;20500;-57
2023/09/08 12:44:05;;;;;;;8.52;7.72;;;28.50;80.80;;;;;;5007349;28;20029;-56
2023/09/08 12:46:51;;;;;;;8.27;7.43;;;28.50;80.20;;;;;;5007847;28;20030;-57
2023/09/08 12:49:37;;;;;;;9.82;6.90;;;28.70;80.10;;;;;;5008176;28;20041;-58
2023/09/08 12:52:23;;;;;;;8.02;7.22;;;28.90;80.20;;;;;;5009879;28;20376;-55
2023/09/08 12:55:10;;;;;;;8.50;7.47;;;29.00;79.10;;;;;;5017645;28;20105;-55
2023/09/08 12:57:57;;;;;;;7.25;6.55;;;29.10;78.40;;;;;;5009562;28;20101;-60
2023/09/08 13:00:44;;;;;;;10.32;7.10;;;29.20;78.90;;;;;;5010600;28;20041;-57
2023/09/08 13:03:29;;;;;;;10.05;7.13;;;29.40;78.20;;;;;;5010780;28;20038;-57
2023/09/08 13:06:15;;;;;;;8.20;7.20;;;29.50;77.40;;;;;;5009864;28;20030;-59
2023/09/08 13:09:01;;;;;;;8.88;7.03;;;29.70;77.50;;;;;;5006706;28;20357;-57
2023/09/08 13:11:47;;;;;;;8.10;7.25;;;29.70;76.00;;;;;;5008311;28;20065;-56
2023/09/08 13:14:33;;;;;;;8.43;7.18;;;29.70;75.50;;;;;;5010183;28;20110;-58
2023/09/08 13:17:20;;;;;;;7.45;6.72;;;29.80;75.70;;;;;;5007786;28;20018;-57
2023/09/08 13:20:08;;;;;;;8.10;6.90;;;30.00;75.70;;;;;;5008246;28;20061;-58
2023/09/08 13:22:53;;;;;;;7.60;6.63;;;30.10;75.50;;;;;;5008824;28;20586;-57
2023/09/08 13:25:41;;;;;;;8.85;7.10;;;30.20;75.50;;;;;;5009967;28;20080;-59
2023/09/08 13:28:27;;;;;;;7.40;6.70;;;30.40;74.70;;;;;;5009093;28;20615;-55
2023/09/08 13:31:13;;;;;;;6.85;6.18;;;30.50;75.70;;;;;;5004035;28;20134;-56
2023/09/08 13:33:59;;;;;;;7.40;6.50;;;30.70;75.30;;;;;;5008775;28;20030;-58
2023/09/08 13:36:45;;;;;;;9.07;6.93;;;30.80;74.30;;;;;;5004087;28;20034;-55
2023/09/08 13:39:31;;;;;;;7.22;6.53;;;30.70;73.50;;;;;;5000707;28;20081;-54
2023/09/08 13:42:17;;;;;;;7.82;6.45;;;30.70;73.60;;;;;;5008911;28;20030;-56
2023/09/08 13:45:03;;;;;;;7.82;6.97;;;30.90;73.90;;;;;;5007662;28;20034;-60
2023/09/08 13:47:49;;;;;;;7.45;6.60;;;30.90;73.40;;;;;;5010002;28;20033;-58
2023/09/08 13:50:37;;;;;;;8.43;6.57;;;31.00;73.50;;;;;;5008802;28;20033;-57
2023/09/08 13:53:23;;;;;;;9.98;6.70;;;31.30;74.70;;;;;;5008719;28;20022;-55
2023/09/08 13:56:09;;;;;;;7.00;6.40;;;31.50;74.50;;;;;;5009466;28;20491;-56
2023/09/08 13:58:55;;;;;;;8.55;6.90;;;31.70;74.00;;;;;;5006707;28;20065;-60
2023/09/08 14:01:41;;;;;;;7.28;6.55;;;31.70;72.30;;;;;;5005886;28;20084;-58
2023/09/08 14:04:27;;;;;;;8.13;6.63;;;31.90;73.90;;;;;;5008318;28;20496;-57
2023/09/08 14:07:13;;;;;;;8.68;6.43;;;31.80;71.20;;;;;;5007332;28;20034;-56
2023/09/08 14:10:01;;;;;;;9.30;6.15;;;31.90;70.70;;;;;;5008152;28;20109;-60
2023/09/08 14:12:47;;;;;;;7.40;6.38;;;32.00;69.40;;;;;;5012621;28;20113;-55
2023/09/08 14:15:33;;;;;;;9.10;6.28;;;32.00;69.70;;;;;;5014062;28;20514;-61